sensor_id;sensor_type;location;lat;lon;timestamp;P1;durP1;ratioP1;P2;durP2;ratioP2
43813;SDS011;29669;55.706;37.656;2023-01-16T00:01:55;15.55;;;7.07;;
43813;SDS011;29669;55.706;37.656;2023-01-16T00:04:24;15.48;;;7.18;;
43813;SDS011;29669;55.706;37.656;2023-01-16T00:06:52;24.45;;;7.78;;
43813;SDS011;29669;55.706;37.656;2023-01-16T00:09:19;19.15;;;7.25;;
43813;SDS011;29669;55.706;37.656;2023-01-16T00:11:47;22.50;;;7.72;;
43813;SDS011;29669;55.706;37.656;2023-01-16T00:14:14;14.93;;;6.78;;
43813;SDS011;29669;55.706;37.656;2023-01-16T00:16:42;15.82;;;7.05;;
43813;SDS011;29669;55.706;37.656;2023-01-16T00:19:09;20.50;;;7.63;;
43813;SDS011;29669;55.706;37.656;2023-01-16T00:21:37;18.85;;;6.70;;
43813;SDS011;29669;55.706;37.656;2023-01-16T00:24:04;14.40;;;6.93;;
43813;SDS011;29669;55.706;37.656;2023-01-16T00:26:33;19.35;;;7.50;;
43813;SDS011;29669;55.706;37.656;2023-01-16T00:29:01;16.00;;;7.03;;
43813;SDS011;29669;55.706;37.656;2023-01-16T00:31:29;17.35;;;6.55;;
43813;SDS011;29669;55.706;37.656;2023-01-16T00:33:56;17.33;;;7.20;;
43813;SDS011;29669;55.706;37.656;2023-01-16T00:36:24;13.93;;;6.75;;
43813;SDS011;29669;55.706;37.656;2023-01-16T00:38:51;23.02;;;7.38;;
43813;SDS011;29669;55.706;37.656;2023-01-16T00:41:18;15.85;;;7.20;;
43813;SDS011;29669;55.706;37.656;2023-01-16T00:43:46;20.95;;;6.28;;
43813;SDS011;29669;55.706;37.656;2023-01-16T00:46:13;15.23;;;6.80;;
43813;SDS011;29669;55.706;37.656;2023-01-16T00:48:41;17.48;;;7.72;;
43813;SDS011;29669;55.706;37.656;2023-01-16T00:51:08;16.10;;;6.07;;
43813;SDS011;29669;55.706;37.656;2023-01-16T00:53:35;18.05;;;6.70;;
43813;SDS011;29669;55.706;37.656;2023-01-16T00:56:03;17.63;;;7.28;;
43813;SDS011;29669;55.706;37.656;2023-01-16T00:58:31;21.73;;;6.10;;
43813;SDS011;29669;55.706;37.656;2023-01-16T01:00:59;16.77;;;6.45;;
43813;SDS011;29669;55.706;37.656;2023-01-16T01:03:27;10.40;;;5.68;;
43813;SDS011;29669;55.706;37.656;2023-01-16T01:05:55;18.40;;;6.72;;
43813;SDS011;29669;55.706;37.656;2023-01-16T01:08:23;16.75;;;5.75;;
43813;SDS011;29669;55.706;37.656;2023-01-16T01:10:50;21.35;;;6.88;;
43813;SDS011;29669;55.706;37.656;2023-01-16T01:13:18;19.33;;;6.57;;
43813;SDS011;29669;55.706;37.656;2023-01-16T01:15:45;22.92;;;7.68;;
43813;SDS011;29669;55.706;37.656;2023-01-16T01:18:12;22.80;;;7.65;;
43813;SDS011;29669;55.706;37.656;2023-01-16T01:20:40;14.77;;;6.80;;
43813;SDS011;29669;55.706;37.656;2023-01-16T01:23:07;16.95;;;6.72;;
43813;SDS011;29669;55.706;37.656;2023-01-16T01:25:37;14.30;;;6.88;;
43813;SDS011;29669;55.706;37.656;2023-01-16T01:28:04;13.18;;;6.95;;
43813;SDS011;29669;55.706;37.656;2023-01-16T01:30:31;19.08;;;6.78;;
43813;SDS011;29669;55.706;37.656;2023-01-16T01:32:59;19.67;;;6.30;;
43813;SDS011;29669;55.706;37.656;2023-01-16T01:35:26;15.27;;;6.88;;
43813;SDS011;29669;55.706;37.656;2023-01-16T01:37:53;17.45;;;7.10;;
43813;SDS011;29669;55.706;37.656;2023-01-16T01:40:21;23.00;;;7.18;;
43813;SDS011;29669;55.706;37.656;2023-01-16T01:42:48;16.42;;;6.80;;
43813;SDS011;29669;55.706;37.656;2023-01-16T01:45:22;19.33;;;6.95;;
43813;SDS011;29669;55.706;37.656;2023-01-16T01:56:08;17.10;;;5.75;;
43813;SDS011;29669;55.706;37.656;2023-01-16T01:58:43;16.83;;;6.40;;
43813;SDS011;29669;55.706;37.656;2023-01-16T02:01:15;13.45;;;6.07;;
43813;SDS011;29669;55.706;37.656;2023-01-16T02:03:47;14.13;;;6.03;;
43813;SDS011;29669;55.706;37.656;2023-01-16T02:06:24;17.65;;;6.22;;
43813;SDS011;29669;55.706;37.656;2023-01-16T02:08:57;16.23;;;6.90;;
43813;SDS011;29669;55.706;37.656;2023-01-16T02:11:33;10.60;;;5.07;;
43813;SDS011;29669;55.706;37.656;2023-01-16T02:14:07;13.73;;;5.72;;
43813;SDS011;29669;55.706;37.656;2023-01-16T02:16:36;16.17;;;6.88;;
43813;SDS011;29669;55.706;37.656;2023-01-16T02:22:03;22.10;;;6.78;;
43813;SDS011;29669;55.706;37.656;2023-01-16T02:30:33;25.05;;;6.75;;
43813;SDS011;29669;55.706;37.656;2023-01-16T02:44:29;18.90;;;5.85;;
43813;SDS011;29669;55.706;37.656;2023-01-16T02:49:47;17.35;;;6.57;;
43813;SDS011;29669;55.706;37.656;2023-01-16T02:53:06;13.85;;;5.53;;
43813;SDS011;29669;55.706;37.656;2023-01-16T02:55:12;19.80;;;5.45;;
43813;SDS011;29669;55.706;37.656;2023-01-16T02:57:49;20.88;;;5.50;;
43813;SDS011;29669;55.706;37.656;2023-01-16T03:00:23;19.40;;;6.03;;
43813;SDS011;29669;55.706;37.656;2023-01-16T03:02:51;14.80;;;5.90;;
43813;SDS011;29669;55.706;37.656;2023-01-16T03:05:19;16.30;;;6.30;;
43813;SDS011;29669;55.706;37.656;2023-01-16T03:13:18;14.68;;;5.50;;
43813;SDS011;29669;55.706;37.656;2023-01-16T03:26:45;18.20;;;6.45;;
43813;SDS011;29669;55.706;37.656;2023-01-16T03:29:21;20.80;;;6.07;;
43813;SDS011;29669;55.706;37.656;2023-01-16T03:31:57;15.60;;;4.57;;
43813;SDS011;29669;55.706;37.656;2023-01-16T03:37:33;17.80;;;5.78;;
43813;SDS011;29669;55.706;37.656;2023-01-16T03:40:09;13.80;;;6.20;;
43813;SDS011;29669;55.706;37.656;2023-01-16T03:42:41;17.63;;;6.38;;
43813;SDS011;29669;55.706;37.656;2023-01-16T03:45:21;19.30;;;5.70;;
43813;SDS011;29669;55.706;37.656;2023-01-16T03:51:05;14.85;;;5.75;;
43813;SDS011;29669;55.706;37.656;2023-01-16T03:53:42;24.83;;;6.90;;
43813;SDS011;29669;55.706;37.656;2023-01-16T03:56:20;11.38;;;5.50;;
43813;SDS011;29669;55.706;37.656;2023-01-16T03:58:54;13.10;;;5.68;;
43813;SDS011;29669;55.706;37.656;2023-01-16T04:04:40;16.88;;;6.28;;
43813;SDS011;29669;55.706;37.656;2023-01-16T04:08:03;14.25;;;6.97;;
43813;SDS011;29669;55.706;37.656;2023-01-16T04:10:19;14.93;;;6.20;;
43813;SDS011;29669;55.706;37.656;2023-01-16T04:12:52;10.80;;;4.72;;
43813;SDS011;29669;55.706;37.656;2023-01-16T04:15:23;20.48;;;6.47;;
43813;SDS011;29669;55.706;37.656;2023-01-16T04:17:54;26.50;;;5.93;;
43813;SDS011;29669;55.706;37.656;2023-01-16T04:20:21;21.00;;;6.40;;
43813;SDS011;29669;55.706;37.656;2023-01-16T04:22:49;16.30;;;6.28;;
43813;SDS011;29669;55.706;37.656;2023-01-16T04:25:17;18.33;;;7.00;;
43813;SDS011;29669;55.706;37.656;2023-01-16T04:27:45;16.63;;;5.97;;
43813;SDS011;29669;55.706;37.656;2023-01-16T04:30:13;17.77;;;7.05;;
43813;SDS011;29669;55.706;37.656;2023-01-16T04:32:42;18.10;;;6.93;;
43813;SDS011;29669;55.706;37.656;2023-01-16T04:35:10;18.92;;;6.35;;
43813;SDS011;29669;55.706;37.656;2023-01-16T04:37:37;17.85;;;6.43;;
43813;SDS011;29669;55.706;37.656;2023-01-16T04:40:05;13.43;;;6.72;;
43813;SDS011;29669;55.706;37.656;2023-01-16T04:42:35;14.60;;;5.30;;
43813;SDS011;29669;55.706;37.656;2023-01-16T04:45:03;28.67;;;6.18;;
43813;SDS011;29669;55.706;37.656;2023-01-16T04:47:31;13.63;;;6.20;;
43813;SDS011;29669;55.706;37.656;2023-01-16T04:49:58;14.73;;;5.90;;
43813;SDS011;29669;55.706;37.656;2023-01-16T04:52:26;17.00;;;5.97;;
43813;SDS011;29669;55.706;37.656;2023-01-16T04:54:53;16.02;;;5.80;;
43813;SDS011;29669;55.706;37.656;2023-01-16T04:57:21;17.73;;;6.20;;
43813;SDS011;29669;55.706;37.656;2023-01-16T04:59:48;25.05;;;6.55;;
43813;SDS011;29669;55.706;37.656;2023-01-16T05:02:16;14.45;;;6.45;;
43813;SDS011;29669;55.706;37.656;2023-01-16T05:04:43;18.85;;;5.72;;
43813;SDS011;29669;55.706;37.656;2023-01-16T05:07:11;22.40;;;7.13;;
43813;SDS011;29669;55.706;37.656;2023-01-16T05:09:38;14.73;;;5.78;;
43813;SDS011;29669;55.706;37.656;2023-01-16T05:12:06;22.33;;;5.95;;
43813;SDS011;29669;55.706;37.656;2023-01-16T05:14:33;13.57;;;6.25;;
43813;SDS011;29669;55.706;37.656;2023-01-16T05:17:01;23.80;;;6.38;;
43813;SDS011;29669;55.706;37.656;2023-01-16T05:19:28;18.85;;;6.00;;
43813;SDS011;29669;55.706;37.656;2023-01-16T05:21:55;18.83;;;6.47;;
43813;SDS011;29669;55.706;37.656;2023-01-16T05:24:23;19.42;;;5.57;;
43813;SDS011;29669;55.706;37.656;2023-01-16T05:26:51;15.63;;;7.10;;
43813;SDS011;29669;55.706;37.656;2023-01-16T05:29:19;30.35;;;6.68;;
43813;SDS011;29669;55.706;37.656;2023-01-16T05:31:47;9.77;;;4.72;;
43813;SDS011;29669;55.706;37.656;2023-01-16T05:34:14;13.25;;;5.32;;
43813;SDS011;29669;55.706;37.656;2023-01-16T05:36:41;15.82;;;6.40;;
43813;SDS011;29669;55.706;37.656;2023-01-16T05:39:09;12.80;;;5.28;;
43813;SDS011;29669;55.706;37.656;2023-01-16T05:41:37;15.52;;;5.25;;
43813;SDS011;29669;55.706;37.656;2023-01-16T05:44:04;15.05;;;6.05;;
43813;SDS011;29669;55.706;37.656;2023-01-16T05:46:31;17.10;;;5.47;;
43813;SDS011;29669;55.706;37.656;2023-01-16T05:48:58;14.13;;;5.25;;
43813;SDS011;29669;55.706;37.656;2023-01-16T05:51:25;15.85;;;4.97;;
43813;SDS011;29669;55.706;37.656;2023-01-16T05:53:53;17.63;;;6.90;;
43813;SDS011;29669;55.706;37.656;2023-01-16T05:56:21;17.00;;;5.55;;
43813;SDS011;29669;55.706;37.656;2023-01-16T05:58:49;17.27;;;5.72;;
43813;SDS011;29669;55.706;37.656;2023-01-16T06:01:16;21.02;;;5.82;;
43813;SDS011;29669;55.706;37.656;2023-01-16T06:03:44;24.98;;;7.13;;
43813;SDS011;29669;55.706;37.656;2023-01-16T06:06:11;11.90;;;5.30;;
43813;SDS011;29669;55.706;37.656;2023-01-16T06:08:39;17.63;;;6.47;;
43813;SDS011;29669;55.706;37.656;2023-01-16T06:11:07;22.40;;;6.68;;
43813;SDS011;29669;55.706;37.656;2023-01-16T06:13:34;15.90;;;5.53;;
43813;SDS011;29669;55.706;37.656;2023-01-16T06:16:01;23.58;;;6.07;;
43813;SDS011;29669;55.706;37.656;2023-01-16T06:18:29;10.73;;;4.95;;
43813;SDS011;29669;55.706;37.656;2023-01-16T06:20:56;14.30;;;5.80;;
43813;SDS011;29669;55.706;37.656;2023-01-16T06:23:33;15.98;;;5.50;;
43813;SDS011;29669;55.706;37.656;2023-01-16T06:26:00;19.13;;;5.78;;
43813;SDS011;29669;55.706;37.656;2023-01-16T06:28:29;19.00;;;7.00;;
43813;SDS011;29669;55.706;37.656;2023-01-16T06:30:57;15.80;;;5.25;;
43813;SDS011;29669;55.706;37.656;2023-01-16T06:33:24;12.35;;;4.95;;
43813;SDS011;29669;55.706;37.656;2023-01-16T06:35:52;21.60;;;5.97;;
43813;SDS011;29669;55.706;37.656;2023-01-16T06:38:19;9.52;;;4.45;;
43813;SDS011;29669;55.706;37.656;2023-01-16T06:40:47;7.85;;;4.10;;
43813;SDS011;29669;55.706;37.656;2023-01-16T06:43:14;16.83;;;6.97;;
43813;SDS011;29669;55.706;37.656;2023-01-16T06:45:45;19.83;;;6.57;;
43813;SDS011;29669;55.706;37.656;2023-01-16T06:48:12;12.02;;;5.30;;
43813;SDS011;29669;55.706;37.656;2023-01-16T06:50:40;22.67;;;6.97;;
43813;SDS011;29669;55.706;37.656;2023-01-16T06:53:07;18.38;;;5.43;;
43813;SDS011;29669;55.706;37.656;2023-01-16T06:55:35;12.60;;;5.63;;
43813;SDS011;29669;55.706;37.656;2023-01-16T06:58:03;14.48;;;5.28;;
43813;SDS011;29669;55.706;37.656;2023-01-16T07:00:30;23.17;;;4.97;;
43813;SDS011;29669;55.706;37.656;2023-01-16T07:02:58;18.33;;;5.18;;
43813;SDS011;29669;55.706;37.656;2023-01-16T07:05:26;9.57;;;4.95;;
43813;SDS011;29669;55.706;37.656;2023-01-16T07:07:55;11.77;;;4.95;;
43813;SDS011;29669;55.706;37.656;2023-01-16T07:10:22;19.08;;;5.45;;
43813;SDS011;29669;55.706;37.656;2023-01-16T07:12:50;14.30;;;5.20;;
43813;SDS011;29669;55.706;37.656;2023-01-16T07:15:19;15.77;;;6.03;;
43813;SDS011;29669;55.706;37.656;2023-01-16T07:18:05;17.23;;;4.68;;
43813;SDS011;29669;55.706;37.656;2023-01-16T07:20:52;12.77;;;4.13;;
43813;SDS011;29669;55.706;37.656;2023-01-16T07:23:42;8.68;;;4.78;;
43813;SDS011;29669;55.706;37.656;2023-01-16T07:26:13;17.60;;;4.97;;
43813;SDS011;29669;55.706;37.656;2023-01-16T07:28:46;16.08;;;4.70;;
43813;SDS011;29669;55.706;37.656;2023-01-16T07:31:15;10.68;;;5.10;;
43813;SDS011;29669;55.706;37.656;2023-01-16T07:33:43;7.47;;;3.38;;
43813;SDS011;29669;55.706;37.656;2023-01-16T07:36:11;17.05;;;5.20;;
43813;SDS011;29669;55.706;37.656;2023-01-16T07:38:38;17.00;;;4.63;;
43813;SDS011;29669;55.706;37.656;2023-01-16T07:41:06;13.32;;;4.65;;
43813;SDS011;29669;55.706;37.656;2023-01-16T07:43:33;14.32;;;4.93;;
43813;SDS011;29669;55.706;37.656;2023-01-16T07:46:02;13.05;;;5.75;;
43813;SDS011;29669;55.706;37.656;2023-01-16T07:48:30;14.35;;;4.40;;
43813;SDS011;29669;55.706;37.656;2023-01-16T07:50:57;11.65;;;4.70;;
43813;SDS011;29669;55.706;37.656;2023-01-16T07:53:27;27.33;;;5.57;;
43813;SDS011;29669;55.706;37.656;2023-01-16T07:55:59;19.88;;;4.90;;
43813;SDS011;29669;55.706;37.656;2023-01-16T07:58:27;10.00;;;4.55;;
43813;SDS011;29669;55.706;37.656;2023-01-16T08:00:56;19.08;;;5.13;;
43813;SDS011;29669;55.706;37.656;2023-01-16T08:03:24;15.43;;;5.45;;
43813;SDS011;29669;55.706;37.656;2023-01-16T08:05:56;19.63;;;4.95;;
43813;SDS011;29669;55.706;37.656;2023-01-16T08:08:23;11.95;;;3.95;;
43813;SDS011;29669;55.706;37.656;2023-01-16T08:10:56;6.75;;;3.90;;
43813;SDS011;29669;55.706;37.656;2023-01-16T08:13:25;9.48;;;3.22;;
43813;SDS011;29669;55.706;37.656;2023-01-16T08:15:53;12.00;;;5.53;;
43813;SDS011;29669;55.706;37.656;2023-01-16T08:18:21;17.48;;;5.65;;
43813;SDS011;29669;55.706;37.656;2023-01-16T08:20:48;13.07;;;4.28;;
43813;SDS011;29669;55.706;37.656;2023-01-16T08:23:15;9.75;;;3.88;;
43813;SDS011;29669;55.706;37.656;2023-01-16T08:25:43;21.83;;;4.15;;
43813;SDS011;29669;55.706;37.656;2023-01-16T08:28:10;11.70;;;4.75;;
43813;SDS011;29669;55.706;37.656;2023-01-16T08:30:37;12.32;;;4.30;;
43813;SDS011;29669;55.706;37.656;2023-01-16T08:33:05;13.95;;;4.47;;
43813;SDS011;29669;55.706;37.656;2023-01-16T08:35:32;15.52;;;4.57;;
43813;SDS011;29669;55.706;37.656;2023-01-16T08:38:00;10.55;;;4.07;;
43813;SDS011;29669;55.706;37.656;2023-01-16T08:40:27;12.48;;;4.25;;
43813;SDS011;29669;55.706;37.656;2023-01-16T08:42:56;14.60;;;4.07;;
43813;SDS011;29669;55.706;37.656;2023-01-16T08:45:42;13.70;;;4.85;;
43813;SDS011;29669;55.706;37.656;2023-01-16T08:51:16;8.27;;;4.35;;
43813;SDS011;29669;55.706;37.656;2023-01-16T08:53:53;12.80;;;4.10;;
43813;SDS011;29669;55.706;37.656;2023-01-16T08:56:22;8.18;;;4.05;;
43813;SDS011;29669;55.706;37.656;2023-01-16T08:58:50;10.77;;;3.90;;
43813;SDS011;29669;55.706;37.656;2023-01-16T09:01:17;15.85;;;4.80;;
43813;SDS011;29669;55.706;37.656;2023-01-16T09:03:45;13.38;;;4.30;;
43813;SDS011;29669;55.706;37.656;2023-01-16T09:06:13;12.68;;;4.55;;
43813;SDS011;29669;55.706;37.656;2023-01-16T09:08:40;13.13;;;4.43;;
43813;SDS011;29669;55.706;37.656;2023-01-16T09:11:08;11.65;;;4.15;;
43813;SDS011;29669;55.706;37.656;2023-01-16T09:13:54;5.75;;;3.95;;
43813;SDS011;29669;55.706;37.656;2023-01-16T09:16:27;11.13;;;4.30;;
43813;SDS011;29669;55.706;37.656;2023-01-16T09:18:54;7.97;;;3.35;;
43813;SDS011;29669;55.706;37.656;2023-01-16T09:21:22;12.82;;;3.85;;
43813;SDS011;29669;55.706;37.656;2023-01-16T09:23:51;12.73;;;4.03;;
43813;SDS011;29669;55.706;37.656;2023-01-16T09:26:19;9.38;;;4.18;;
43813;SDS011;29669;55.706;37.656;2023-01-16T09:28:46;10.55;;;3.95;;
43813;SDS011;29669;55.706;37.656;2023-01-16T09:31:14;9.75;;;3.78;;
43813;SDS011;29669;55.706;37.656;2023-01-16T09:33:42;11.73;;;4.25;;
43813;SDS011;29669;55.706;37.656;2023-01-16T09:36:09;10.63;;;3.35;;
43813;SDS011;29669;55.706;37.656;2023-01-16T09:38:37;11.32;;;4.50;;
43813;SDS011;29669;55.706;37.656;2023-01-16T09:41:04;10.90;;;3.90;;
43813;SDS011;29669;55.706;37.656;2023-01-16T09:46:03;10.40;;;3.67;;
43813;SDS011;29669;55.706;37.656;2023-01-16T09:48:46;14.15;;;4.57;;
43813;SDS011;29669;55.706;37.656;2023-01-16T09:51:21;9.90;;;3.88;;
43813;SDS011;29669;55.706;37.656;2023-01-16T09:53:59;13.82;;;4.32;;
43813;SDS011;29669;55.706;37.656;2023-01-16T09:56:49;7.22;;;4.32;;
43813;SDS011;29669;55.706;37.656;2023-01-16T10:02:23;12.95;;;3.97;;
43813;SDS011;29669;55.706;37.656;2023-01-16T10:05:01;10.43;;;3.72;;
43813;SDS011;29669;55.706;37.656;2023-01-16T10:18:19;13.38;;;3.97;;
43813;SDS011;29669;55.706;37.656;2023-01-16T10:21:06;9.15;;;3.78;;
43813;SDS011;29669;55.706;37.656;2023-01-16T10:23:54;10.90;;;4.65;;
43813;SDS011;29669;55.706;37.656;2023-01-16T10:29:42;10.23;;;4.38;;
43813;SDS011;29669;55.706;37.656;2023-01-16T10:37:33;9.07;;;4.00;;
43813;SDS011;29669;55.706;37.656;2023-01-16T10:40:08;8.95;;;4.82;;
43813;SDS011;29669;55.706;37.656;2023-01-16T10:42:38;13.38;;;4.93;;
43813;SDS011;29669;55.706;37.656;2023-01-16T10:45:29;9.07;;;4.30;;
43813;SDS011;29669;55.706;37.656;2023-01-16T10:48:19;12.45;;;4.13;;
43813;SDS011;29669;55.706;37.656;2023-01-16T10:53:34;7.25;;;3.55;;
43813;SDS011;29669;55.706;37.656;2023-01-16T10:56:04;9.90;;;4.15;;
43813;SDS011;29669;55.706;37.656;2023-01-16T10:58:36;9.38;;;4.10;;
43813;SDS011;29669;55.706;37.656;2023-01-16T11:01:05;9.18;;;3.65;;
43813;SDS011;29669;55.706;37.656;2023-01-16T11:03:38;7.55;;;3.92;;
43813;SDS011;29669;55.706;37.656;2023-01-16T11:08:48;10.85;;;4.13;;
43813;SDS011;29669;55.706;37.656;2023-01-16T11:11:19;17.73;;;4.70;;
43813;SDS011;29669;55.706;37.656;2023-01-16T11:14:17;8.95;;;4.25;;
43813;SDS011;29669;55.706;37.656;2023-01-16T11:17:20;7.68;;;3.78;;
43813;SDS011;29669;55.706;37.656;2023-01-16T11:20:29;11.63;;;3.88;;
43813;SDS011;29669;55.706;37.656;2023-01-16T11:22:57;7.43;;;3.30;;
43813;SDS011;29669;55.706;37.656;2023-01-16T11:25:27;6.28;;;4.03;;
43813;SDS011;29669;55.706;37.656;2023-01-16T11:27:56;7.90;;;3.42;;
43813;SDS011;29669;55.706;37.656;2023-01-16T11:30:29;10.82;;;3.63;;
43813;SDS011;29669;55.706;37.656;2023-01-16T11:32:59;12.95;;;4.03;;
43813;SDS011;29669;55.706;37.656;2023-01-16T11:35:34;7.38;;;3.65;;
43813;SDS011;29669;55.706;37.656;2023-01-16T11:38:04;10.98;;;4.03;;
43813;SDS011;29669;55.706;37.656;2023-01-16T11:40:35;13.32;;;4.40;;
43813;SDS011;29669;55.706;37.656;2023-01-16T11:43:08;9.90;;;4.18;;
43813;SDS011;29669;55.706;37.656;2023-01-16T11:45:59;8.57;;;4.13;;
43813;SDS011;29669;55.706;37.656;2023-01-16T11:48:35;12.80;;;3.95;;
43813;SDS011;29669;55.706;37.656;2023-01-16T11:51:05;8.85;;;3.70;;
43813;SDS011;29669;55.706;37.656;2023-01-16T11:53:34;9.25;;;4.18;;
43813;SDS011;29669;55.706;37.656;2023-01-16T11:59:02;9.48;;;3.88;;
43813;SDS011;29669;55.706;37.656;2023-01-16T12:08:24;10.90;;;3.55;;
43813;SDS011;29669;55.706;37.656;2023-01-16T12:11:00;8.85;;;3.72;;
43813;SDS011;29669;55.706;37.656;2023-01-16T12:27:42;6.07;;;3.90;;
43813;SDS011;29669;55.706;37.656;2023-01-16T12:30:24;5.03;;;3.40;;
43813;SDS011;29669;55.706;37.656;2023-01-16T12:33:08;11.27;;;4.18;;
43813;SDS011;29669;55.706;37.656;2023-01-16T12:36:11;7.68;;;4.00;;
43813;SDS011;29669;55.706;37.656;2023-01-16T12:39:02;12.18;;;4.30;;
43813;SDS011;29669;55.706;37.656;2023-01-16T12:41:41;7.85;;;3.90;;
43813;SDS011;29669;55.706;37.656;2023-01-16T12:50:01;19.05;;;6.80;;
43813;SDS011;29669;55.706;37.656;2023-01-16T12:57:54;6.18;;;3.10;;
43813;SDS011;29669;55.706;37.656;2023-01-16T13:00:44;5.45;;;3.58;;
43813;SDS011;29669;55.706;37.656;2023-01-16T13:03:26;8.50;;;4.60;;
43813;SDS011;29669;55.706;37.656;2023-01-16T13:06:01;13.88;;;4.57;;
43813;SDS011;29669;55.706;37.656;2023-01-16T13:08:34;10.50;;;4.40;;
43813;SDS011;29669;55.706;37.656;2023-01-16T13:11:10;11.68;;;4.32;;
43813;SDS011;29669;55.706;37.656;2023-01-16T13:14:03;8.75;;;4.70;;
43813;SDS011;29669;55.706;37.656;2023-01-16T13:16:35;9.05;;;4.38;;
43813;SDS011;29669;55.706;37.656;2023-01-16T13:21:58;11.38;;;5.18;;
43813;SDS011;29669;55.706;37.656;2023-01-16T13:24:38;15.55;;;6.25;;
43813;SDS011;29669;55.706;37.656;2023-01-16T13:27:16;8.65;;;3.95;;
43813;SDS011;29669;55.706;37.656;2023-01-16T13:29:50;10.50;;;4.55;;
43813;SDS011;29669;55.706;37.656;2023-01-16T13:34:56;9.07;;;5.25;;
43813;SDS011;29669;55.706;37.656;2023-01-16T13:40:26;14.20;;;5.20;;
43813;SDS011;29669;55.706;37.656;2023-01-16T13:43:04;15.90;;;4.82;;
43813;SDS011;29669;55.706;37.656;2023-01-16T13:45:56;15.38;;;4.30;;
43813;SDS011;29669;55.706;37.656;2023-01-16T13:48:27;9.85;;;5.38;;
43813;SDS011;29669;55.706;37.656;2023-01-16T13:50:59;16.17;;;6.13;;
43813;SDS011;29669;55.706;37.656;2023-01-16T13:53:29;12.30;;;5.30;;
43813;SDS011;29669;55.706;37.656;2023-01-16T13:56:12;11.90;;;5.38;;
43813;SDS011;29669;55.706;37.656;2023-01-16T13:58:44;8.82;;;4.85;;
43813;SDS011;29669;55.706;37.656;2023-01-16T14:06:57;12.00;;;6.68;;
43813;SDS011;29669;55.706;37.656;2023-01-16T14:09:58;12.25;;;5.88;;
43813;SDS011;29669;55.706;37.656;2023-01-16T14:15:22;13.80;;;6.20;;
43813;SDS011;29669;55.706;37.656;2023-01-16T14:27:05;11.85;;;5.47;;
43813;SDS011;29669;55.706;37.656;2023-01-16T14:29:17;15.20;;;6.05;;
43813;SDS011;29669;55.706;37.656;2023-01-16T14:37:28;14.20;;;5.13;;
43813;SDS011;29669;55.706;37.656;2023-01-16T14:45:32;9.82;;;5.32;;
43813;SDS011;29669;55.706;37.656;2023-01-16T14:57:00;22.27;;;6.30;;
43813;SDS011;29669;55.706;37.656;2023-01-16T14:59:33;15.75;;;5.38;;
43813;SDS011;29669;55.706;37.656;2023-01-16T15:02:02;10.90;;;5.28;;
43813;SDS011;29669;55.706;37.656;2023-01-16T15:07:16;16.38;;;5.80;;
43813;SDS011;29669;55.706;37.656;2023-01-16T15:09:50;17.67;;;5.93;;
43813;SDS011;29669;55.706;37.656;2023-01-16T15:12:20;22.02;;;6.93;;
43813;SDS011;29669;55.706;37.656;2023-01-16T15:14:53;12.05;;;6.05;;
43813;SDS011;29669;55.706;37.656;2023-01-16T15:17:25;20.00;;;5.85;;
43813;SDS011;29669;55.706;37.656;2023-01-16T15:22:59;21.95;;;5.05;;
43813;SDS011;29669;55.706;37.656;2023-01-16T15:31:09;23.67;;;9.07;;
43813;SDS011;29669;55.706;37.656;2023-01-16T15:33:40;27.48;;;7.35;;
43813;SDS011;29669;55.706;37.656;2023-01-16T15:36:31;15.52;;;6.20;;
43813;SDS011;29669;55.706;37.656;2023-01-16T15:41:46;14.60;;;6.55;;
43813;SDS011;29669;55.706;37.656;2023-01-16T15:44:39;12.10;;;6.05;;
43813;SDS011;29669;55.706;37.656;2023-01-16T15:47:38;20.42;;;7.00;;
43813;SDS011;29669;55.706;37.656;2023-01-16T15:50:21;14.90;;;6.88;;
43813;SDS011;29669;55.706;37.656;2023-01-16T15:52:59;20.40;;;6.95;;
43813;SDS011;29669;55.706;37.656;2023-01-16T15:55:28;19.38;;;6.22;;
43813;SDS011;29669;55.706;37.656;2023-01-16T15:58:02;17.40;;;6.68;;
43813;SDS011;29669;55.706;37.656;2023-01-16T16:00:36;16.38;;;5.80;;
43813;SDS011;29669;55.706;37.656;2023-01-16T16:05:47;12.48;;;5.93;;
43813;SDS011;29669;55.706;37.656;2023-01-16T16:08:19;12.93;;;6.03;;
43813;SDS011;29669;55.706;37.656;2023-01-16T16:10:52;16.17;;;6.90;;
43813;SDS011;29669;55.706;37.656;2023-01-16T16:13:40;16.27;;;5.65;;
43813;SDS011;29669;55.706;37.656;2023-01-16T16:16:21;16.90;;;5.85;;
43813;SDS011;29669;55.706;37.656;2023-01-16T16:19:30;14.43;;;5.70;;
43813;SDS011;29669;55.706;37.656;2023-01-16T16:22:01;21.15;;;6.75;;
43813;SDS011;29669;55.706;37.656;2023-01-16T16:24:53;12.73;;;5.90;;
43813;SDS011;29669;55.706;37.656;2023-01-16T16:27:20;14.18;;;6.78;;
43813;SDS011;29669;55.706;37.656;2023-01-16T16:29:52;18.52;;;6.97;;
43813;SDS011;29669;55.706;37.656;2023-01-16T16:32:22;13.60;;;5.47;;
43813;SDS011;29669;55.706;37.656;2023-01-16T16:34:51;18.70;;;5.93;;
43813;SDS011;29669;55.706;37.656;2023-01-16T16:37:20;21.63;;;6.75;;
43813;SDS011;29669;55.706;37.656;2023-01-16T16:40:05;16.00;;;5.80;;
43813;SDS011;29669;55.706;37.656;2023-01-16T16:45:19;22.20;;;6.75;;
43813;SDS011;29669;55.706;37.656;2023-01-16T16:50:45;15.07;;;6.22;;
43813;SDS011;29669;55.706;37.656;2023-01-16T16:53:14;16.10;;;5.68;;
43813;SDS011;29669;55.706;37.656;2023-01-16T16:55:45;17.05;;;7.70;;
43813;SDS011;29669;55.706;37.656;2023-01-16T16:58:22;14.50;;;6.85;;
43813;SDS011;29669;55.706;37.656;2023-01-16T17:00:52;18.67;;;6.20;;
43813;SDS011;29669;55.706;37.656;2023-01-16T17:03:20;14.77;;;6.03;;
43813;SDS011;29669;55.706;37.656;2023-01-16T17:05:48;21.00;;;6.72;;
43813;SDS011;29669;55.706;37.656;2023-01-16T17:08:20;16.55;;;5.78;;
43813;SDS011;29669;55.706;37.656;2023-01-16T17:10:50;14.18;;;6.78;;
43813;SDS011;29669;55.706;37.656;2023-01-16T17:13:18;15.43;;;5.80;;
43813;SDS011;29669;55.706;37.656;2023-01-16T17:15:47;14.48;;;5.05;;
43813;SDS011;29669;55.706;37.656;2023-01-16T17:18:17;14.32;;;5.65;;
43813;SDS011;29669;55.706;37.656;2023-01-16T17:20:45;17.05;;;5.85;;
43813;SDS011;29669;55.706;37.656;2023-01-16T17:23:14;14.63;;;6.28;;
43813;SDS011;29669;55.706;37.656;2023-01-16T17:25:44;14.38;;;6.38;;
43813;SDS011;29669;55.706;37.656;2023-01-16T17:28:12;20.73;;;6.53;;
43813;SDS011;29669;55.706;37.656;2023-01-16T17:30:41;13.23;;;6.00;;
43813;SDS011;29669;55.706;37.656;2023-01-16T17:35:43;16.63;;;6.65;;
43813;SDS011;29669;55.706;37.656;2023-01-16T17:38:18;13.98;;;6.22;;
43813;SDS011;29669;55.706;37.656;2023-01-16T17:40:46;13.52;;;6.47;;
43813;SDS011;29669;55.706;37.656;2023-01-16T17:43:14;18.60;;;6.20;;
43813;SDS011;29669;55.706;37.656;2023-01-16T17:46:01;17.58;;;6.50;;
43813;SDS011;29669;55.706;37.656;2023-01-16T17:48:32;15.38;;;5.50;;
43813;SDS011;29669;55.706;37.656;2023-01-16T17:51:01;16.05;;;6.15;;
43813;SDS011;29669;55.706;37.656;2023-01-16T17:53:29;19.20;;;7.05;;
43813;SDS011;29669;55.706;37.656;2023-01-16T17:55:58;14.45;;;6.28;;
43813;SDS011;29669;55.706;37.656;2023-01-16T17:58:31;14.68;;;6.47;;
43813;SDS011;29669;55.706;37.656;2023-01-16T18:01:10;14.50;;;6.55;;
43813;SDS011;29669;55.706;37.656;2023-01-16T18:03:42;18.85;;;5.95;;
43813;SDS011;29669;55.706;37.656;2023-01-16T18:06:15;18.73;;;4.77;;
43813;SDS011;29669;55.706;37.656;2023-01-16T18:08:42;18.65;;;7.03;;